Terminal Aerodrome Forecast
Issued by NWS

Home | Current Version | Previous Version | Text Only | Print | Product List | Glossary On
Versions: 1 2 3 4 5 6 7 8 9 10 11 12
351
FTUS42 TJSJ 041152
TAFJMZ
TAF
TJMZ 041152Z 0412/0512 VRB05KT P6SM VCSH SCT030 SCT060
     FM041700 25008KT P6SM VCSH BKN030
     FM042230 06005KT P6SM FEW030
      AMD NOT SKED TIL 041500=

USA.gov is the U.S. government's official web portal to all federal, state and local government web resources and services.